createdAt,value
2022-11-16T00:00:09.589Z,9.757437
2022-11-16T00:01:09.585Z,9.757402
2022-11-16T00:02:09.652Z,9.757292
2022-11-16T00:03:09.568Z,9.757408
2022-11-16T00:04:09.591Z,9.757238
2022-11-16T00:05:09.551Z,9.757125
2022-11-16T00:06:09.552Z,9.757392
2022-11-16T00:07:09.610Z,9.757502
2022-11-16T00:08:09.531Z,9.757586
2022-11-16T00:09:09.542Z,9.757491
2022-11-16T00:10:09.514Z,9.757437
2022-11-16T00:11:09.507Z,9.757491
2022-11-16T00:12:09.506Z,9.757487
2022-11-16T00:13:09.484Z,9.757401
2022-11-16T00:14:09.506Z,9.757583
2022-11-16T00:15:09.483Z,9.757599
2022-11-16T00:16:09.464Z,9.757550
2022-11-16T00:17:09.453Z,9.757703
2022-11-16T00:18:09.446Z,9.757532
2022-11-16T00:19:09.468Z,9.757505
2022-11-16T00:20:09.431Z,9.757241
2022-11-16T00:21:09.423Z,9.757408
2022-11-16T00:22:09.420Z,9.757491
2022-11-16T00:23:09.402Z,9.757456
2022-11-16T00:24:09.425Z,9.757409
2022-11-16T00:25:09.395Z,9.757642
2022-11-16T00:26:09.376Z,9.757583
2022-11-16T00:27:09.370Z,9.757340
2022-11-16T00:28:09.370Z,9.757491
2022-11-16T00:29:09.386Z,9.757555
2022-11-16T00:30:09.344Z,9.757640
2022-11-16T00:31:09.338Z,9.757337
2022-11-16T00:32:10.325Z,9.757290
2022-11-16T00:33:09.327Z,9.757750
2022-11-16T00:34:09.341Z,9.757379
2022-11-16T00:35:09.311Z,9.757472
2022-11-16T00:36:09.289Z,9.757666
2022-11-16T00:37:10.291Z,9.757732
2022-11-16T00:38:09.291Z,9.757493
2022-11-16T00:39:09.305Z,9.757401
2022-11-16T00:40:09.267Z,9.757443
2022-11-16T00:41:09.262Z,9.757421
2022-11-16T00:42:09.254Z,9.757447
2022-11-16T00:43:09.238Z,9.757539
2022-11-16T00:44:09.258Z,9.757194
2022-11-16T00:45:09.226Z,9.757244
2022-11-16T00:46:09.234Z,9.757374
2022-11-16T00:47:10.219Z,9.757414
2022-11-16T00:48:09.201Z,9.757312
2022-11-16T00:49:09.220Z,9.757408
2022-11-16T00:50:09.184Z,9.757417
2022-11-16T00:51:09.182Z,9.757270
2022-11-16T00:52:09.169Z,9.757192
2022-11-16T00:53:09.158Z,9.757180
2022-11-16T00:54:09.177Z,9.757483
2022-11-16T00:55:09.135Z,9.757529
2022-11-16T00:56:09.138Z,9.757856
2022-11-16T00:57:09.123Z,9.757504
2022-11-16T00:58:09.117Z,9.757527
2022-11-16T00:59:09.139Z,9.757685
2022-11-16T01:00:09.130Z,9.757563
2022-11-16T01:01:09.156Z,9.757452
2022-11-16T01:02:09.088Z,9.757498
2022-11-16T01:03:09.095Z,9.757522
2022-11-16T01:04:09.100Z,9.757523
2022-11-16T01:05:09.062Z,9.757478
2022-11-16T01:06:09.044Z,9.757459
2022-11-16T01:07:09.106Z,9.757472
2022-11-16T01:08:09.031Z,9.757530
2022-11-16T01:09:09.055Z,9.757522
2022-11-16T01:10:09.014Z,9.757535
2022-11-16T01:11:09.011Z,9.757513
2022-11-16T01:12:09.000Z,9.757515
2022-11-16T01:13:08.986Z,9.757554
2022-11-16T01:14:09.008Z,9.757473
2022-11-16T01:15:08.980Z,9.757447
2022-11-16T01:16:08.965Z,9.757681
2022-11-16T01:17:08.960Z,9.757564
2022-11-16T01:18:08.975Z,9.757564
2022-11-16T01:19:08.967Z,9.757422
2022-11-16T01:20:08.933Z,9.757511
2022-11-16T01:21:08.928Z,9.757480
2022-11-16T01:22:08.916Z,9.757590
2022-11-16T01:23:08.904Z,9.757893
2022-11-16T01:24:08.932Z,9.757805
2022-11-16T01:25:08.899Z,9.757616
2022-11-16T01:26:08.877Z,9.757327
2022-11-16T01:27:08.870Z,9.757504
2022-11-16T01:28:08.863Z,9.757441
2022-11-16T01:29:08.879Z,9.757414
2022-11-16T01:30:08.843Z,9.757247
2022-11-16T01:31:08.833Z,9.757579
2022-11-16T01:32:08.825Z,9.757708
2022-11-16T01:33:08.815Z,9.757687
2022-11-16T01:34:08.834Z,9.757671
2022-11-16T01:35:08.800Z,9.757819
2022-11-16T01:36:08.797Z,9.757654
2022-11-16T01:37:08.796Z,9.757513
2022-11-16T01:38:08.774Z,9.757180
2022-11-16T01:39:08.797Z,9.757665
2022-11-16T01:40:08.765Z,9.757585
2022-11-16T01:41:08.750Z,9.757644
2022-11-16T01:42:08.746Z,9.757800
2022-11-16T01:43:08.733Z,9.757543
2022-11-16T01:44:08.761Z,9.757479
2022-11-16T01:45:08.765Z,9.757394
2022-11-16T01:46:08.719Z,9.757761
2022-11-16T01:47:08.700Z,9.757952
2022-11-16T01:48:08.733Z,9.757961
2022-11-16T01:49:08.725Z,9.757924
2022-11-16T01:50:08.692Z,9.757869
2022-11-16T01:51:08.672Z,9.757710
2022-11-16T01:52:08.666Z,9.757666
2022-11-16T01:53:08.654Z,9.757543
2022-11-16T01:54:08.648Z,9.757611
2022-11-16T01:55:08.700Z,9.757651
2022-11-16T01:56:08.634Z,9.757607
2022-11-16T01:57:08.622Z,9.757539
2022-11-16T01:58:08.616Z,9.757803
2022-11-16T01:59:08.645Z,9.757787
2022-11-16T02:00:08.641Z,9.757726
2022-11-16T02:01:08.668Z,9.757885
2022-11-16T02:02:08.576Z,9.757942
2022-11-16T02:03:09.573Z,9.758039
2022-11-16T02:04:08.570Z,9.757996
2022-11-16T02:05:08.592Z,9.757792
2022-11-16T02:06:08.554Z,9.757571
2022-11-16T02:07:08.594Z,9.757445
2022-11-16T02:08:08.544Z,9.757501
2022-11-16T02:09:08.526Z,9.757344
2022-11-16T02:10:08.556Z,9.757596
2022-11-16T02:11:08.514Z,9.757545
2022-11-16T02:12:08.525Z,9.757582
2022-11-16T02:13:08.491Z,9.757576
2022-11-16T02:14:08.487Z,9.757473
2022-11-16T02:15:08.515Z,9.757516
2022-11-16T02:16:08.476Z,9.757551
2022-11-16T02:17:08.464Z,9.757290
2022-11-16T02:18:08.500Z,9.757364
2022-11-16T02:19:08.445Z,9.757479
2022-11-16T02:20:08.466Z,9.757429
2022-11-16T02:21:08.428Z,9.757326
2022-11-16T02:22:08.422Z,9.757236
2022-11-16T02:23:08.411Z,9.757529
2022-11-16T02:24:08.411Z,9.757365
2022-11-16T02:25:08.424Z,9.757375
2022-11-16T02:26:08.394Z,9.757429
2022-11-16T02:27:08.373Z,9.757393
2022-11-16T02:28:08.367Z,9.757446
2022-11-16T02:29:08.362Z,9.757395
2022-11-16T02:30:08.388Z,9.757537
2022-11-16T02:31:08.509Z,9.757541
2022-11-16T02:32:08.346Z,9.757685
2022-11-16T02:33:08.334Z,9.757678
2022-11-16T02:34:08.320Z,9.757710
2022-11-16T02:35:08.334Z,9.757518
2022-11-16T02:36:08.419Z,9.757476
2022-11-16T02:37:08.297Z,9.757369
2022-11-16T02:38:08.289Z,9.757619
2022-11-16T02:39:08.277Z,9.757563
2022-11-16T02:40:08.313Z,9.757785
2022-11-16T02:41:08.261Z,9.757519
2022-11-16T02:42:08.258Z,9.757482
2022-11-16T02:43:08.243Z,9.757501
2022-11-16T02:44:08.235Z,9.757516
2022-11-16T02:45:08.266Z,9.757655
2022-11-16T02:46:08.230Z,9.757589
2022-11-16T02:47:08.218Z,9.757524
2022-11-16T02:48:08.201Z,9.757365
2022-11-16T02:49:08.198Z,9.757290
2022-11-16T02:50:09.219Z,9.757392
2022-11-16T02:51:08.183Z,9.757299
2022-11-16T02:52:08.178Z,9.757298
2022-11-16T02:53:08.169Z,9.757439
2022-11-16T02:54:08.152Z,9.757483
2022-11-16T02:55:08.178Z,9.757296
2022-11-16T02:56:08.151Z,9.757531
2022-11-16T02:57:08.126Z,9.757303
2022-11-16T02:58:08.168Z,9.757327
2022-11-16T02:59:08.124Z,9.757515
2022-11-16T03:00:08.139Z,9.757476
2022-11-16T03:01:08.138Z,9.757472
2022-11-16T03:02:08.099Z,9.757461
2022-11-16T03:03:08.083Z,9.757397
2022-11-16T03:04:08.465Z,9.757498
2022-11-16T03:05:08.099Z,9.757625
2022-11-16T03:06:08.062Z,9.757867
2022-11-16T03:07:08.092Z,9.757728
2022-11-16T03:08:08.043Z,9.757620
2022-11-16T03:09:08.039Z,9.757711
2022-11-16T03:10:08.068Z,9.757532
2022-11-16T03:11:08.027Z,9.757540
2022-11-16T03:12:08.014Z,9.757433
2022-11-16T03:13:08.015Z,9.757379
2022-11-16T03:14:07.995Z,9.757382
2022-11-16T03:15:07.992Z,9.757132
2022-11-16T03:16:08.009Z,9.757074
2022-11-16T03:17:07.977Z,9.757292
2022-11-16T03:18:07.963Z,9.757484
2022-11-16T03:19:07.956Z,9.757444
2022-11-16T03:20:07.947Z,9.757463
2022-11-16T03:21:07.964Z,9.757394
2022-11-16T03:22:08.090Z,9.757584
2022-11-16T03:23:07.918Z,9.757515
2022-11-16T03:24:08.913Z,9.757380
2022-11-16T03:25:07.906Z,9.757536
2022-11-16T03:26:07.923Z,9.757567
2022-11-16T03:27:07.882Z,9.757646
2022-11-16T03:28:07.880Z,9.757635
2022-11-16T03:29:07.878Z,9.757576
2022-11-16T03:30:07.873Z,9.757704
2022-11-16T03:31:07.884Z,9.757771
2022-11-16T03:32:07.847Z,9.757952
2022-11-16T03:33:07.839Z,9.757740
2022-11-16T03:34:07.828Z,9.757414
2022-11-16T03:35:07.828Z,9.757221
2022-11-16T03:36:07.848Z,9.756268
2022-11-16T03:37:07.807Z,9.756474
2022-11-16T03:38:07.812Z,9.757195
2022-11-16T03:39:07.792Z,9.757516
2022-11-16T03:40:07.778Z,9.757663
2022-11-16T03:41:07.808Z,9.757657
2022-11-16T03:42:07.769Z,9.757599
2022-11-16T03:43:07.758Z,9.757465
2022-11-16T03:44:07.749Z,9.757450
2022-11-16T03:45:07.763Z,9.757476
2022-11-16T03:46:07.862Z,9.757498
2022-11-16T03:47:07.721Z,9.757475
2022-11-16T03:48:08.712Z,9.757480
2022-11-16T03:49:07.708Z,9.757505
2022-11-16T03:50:07.706Z,9.757473
2022-11-16T03:51:07.722Z,9.757323
2022-11-16T03:52:07.698Z,9.757395
2022-11-16T03:53:07.671Z,9.757400
2022-11-16T03:54:07.673Z,9.757414
2022-11-16T03:55:07.662Z,9.757395
2022-11-16T03:56:07.688Z,9.757423
2022-11-16T03:57:07.640Z,9.757405
2022-11-16T03:58:07.639Z,9.757461
2022-11-16T03:59:07.645Z,9.757475
2022-11-16T04:00:07.647Z,9.757479
2022-11-16T04:01:07.666Z,9.757511
2022-11-16T04:02:07.631Z,9.757445
2022-11-16T04:03:07.599Z,9.757445
2022-11-16T04:04:07.592Z,9.757423
2022-11-16T04:05:07.572Z,9.757446
2022-11-16T04:06:07.637Z,9.757402
2022-11-16T04:07:07.622Z,9.757462
2022-11-16T04:08:07.553Z,9.757538
2022-11-16T04:09:07.538Z,9.757481
2022-11-16T04:10:07.538Z,9.757468
2022-11-16T04:11:07.563Z,9.757448
2022-11-16T04:12:07.526Z,9.757508
2022-11-16T04:13:07.514Z,9.757384
2022-11-16T04:14:09.258Z,9.757431
2022-11-16T04:15:08.496Z,9.757472
2022-11-16T04:16:07.510Z,9.757337
2022-11-16T04:17:07.473Z,9.757368
2022-11-16T04:18:07.475Z,9.757416
2022-11-16T04:19:07.457Z,9.757424
2022-11-16T04:20:07.489Z,9.757375
2022-11-16T04:21:07.471Z,9.757429
2022-11-16T04:22:07.434Z,9.757463
2022-11-16T04:23:07.437Z,9.757485
2022-11-16T04:24:07.420Z,9.757475
2022-11-16T04:25:07.417Z,9.757476
2022-11-16T04:26:07.460Z,9.757455
2022-11-16T04:27:07.397Z,9.757423
2022-11-16T04:28:07.382Z,9.757366
2022-11-16T04:29:07.379Z,9.757436
2022-11-16T04:30:07.374Z,9.757424
2022-11-16T04:31:07.402Z,9.757375
2022-11-16T04:32:07.353Z,9.757393
2022-11-16T04:33:07.369Z,9.757384
2022-11-16T04:34:07.345Z,9.757500
2022-11-16T04:35:07.332Z,9.757438
2022-11-16T04:36:07.318Z,9.757401
2022-11-16T04:37:11.302Z,9.757342
2022-11-16T04:38:07.313Z,9.757388
2022-11-16T04:39:07.304Z,9.757470
2022-11-16T04:40:07.286Z,9.757500
2022-11-16T04:41:07.280Z,9.757459
2022-11-16T04:42:07.405Z,9.757482
2022-11-16T04:43:07.266Z,9.757565
2022-11-16T04:44:07.250Z,9.757725
2022-11-16T04:45:07.243Z,9.757648
2022-11-16T04:46:07.241Z,9.757482
2022-11-16T04:47:07.595Z,9.757538
2022-11-16T04:48:07.213Z,9.757477
2022-11-16T04:49:07.210Z,9.757608
2022-11-16T04:50:07.201Z,9.757512
2022-11-16T04:51:07.196Z,9.757515
2022-11-16T04:52:07.220Z,9.757623
2022-11-16T04:53:07.178Z,9.757539
2022-11-16T04:54:07.174Z,9.757462
2022-11-16T04:55:07.150Z,9.757668
2022-11-16T04:56:07.157Z,9.757641
2022-11-16T04:57:07.164Z,9.757510
2022-11-16T04:58:07.135Z,9.757574
2022-11-16T04:59:07.121Z,9.757628
2022-11-16T05:00:07.123Z,9.757506
2022-11-16T05:01:07.121Z,9.757472
2022-11-16T05:02:07.122Z,9.757500
2022-11-16T05:03:07.087Z,9.757525
2022-11-16T05:04:07.081Z,9.757472
2022-11-16T05:05:07.067Z,9.757442
2022-11-16T05:06:07.063Z,9.757500
2022-11-16T05:07:07.113Z,9.757484
2022-11-16T05:08:09.131Z,9.757432
2022-11-16T05:09:07.041Z,9.757492
2022-11-16T05:10:07.029Z,9.757513
2022-11-16T05:11:07.024Z,9.757523
2022-11-16T05:12:07.048Z,9.757585
2022-11-16T05:13:07.008Z,9.757536
2022-11-16T05:14:06.997Z,9.757554
2022-11-16T05:15:06.986Z,9.757594
2022-11-16T05:16:06.985Z,9.757533
2022-11-16T05:17:07.010Z,9.757488
2022-11-16T05:18:06.971Z,9.757500
2022-11-16T05:19:06.967Z,9.757530
2022-11-16T05:20:06.974Z,9.757520
2022-11-16T05:21:06.967Z,9.757483
2022-11-16T05:22:06.935Z,9.757493
2022-11-16T05:23:06.951Z,9.757582
2022-11-16T05:24:06.908Z,9.757607
2022-11-16T05:25:06.909Z,9.757571
2022-11-16T05:26:06.903Z,9.757567
2022-11-16T05:27:06.894Z,9.757493
2022-11-16T05:28:06.906Z,9.757531
2022-11-16T05:29:06.873Z,9.757570
2022-11-16T05:30:06.861Z,9.757524
2022-11-16T05:31:06.865Z,9.757614
2022-11-16T05:32:06.846Z,9.757556
2022-11-16T05:33:06.873Z,9.757508
2022-11-16T05:34:06.844Z,9.757582
2022-11-16T05:35:06.820Z,9.757580
2022-11-16T05:36:06.815Z,9.757532
2022-11-16T05:37:06.809Z,9.757668
2022-11-16T05:38:06.825Z,9.757638
2022-11-16T05:39:06.789Z,9.757568
2022-11-16T05:40:06.788Z,9.757529
2022-11-16T05:41:06.775Z,9.757591
2022-11-16T05:42:06.766Z,9.757556
2022-11-16T05:43:06.784Z,9.757571
2022-11-16T05:44:06.749Z,9.757549
2022-11-16T05:45:06.741Z,9.757565
2022-11-16T05:46:06.736Z,9.757625
2022-11-16T05:47:06.721Z,9.757574
2022-11-16T05:48:06.752Z,9.757571
2022-11-16T05:49:06.711Z,9.757578
2022-11-16T05:50:06.695Z,9.757559
2022-11-16T05:51:06.696Z,9.757523
2022-11-16T05:52:06.691Z,9.757510
2022-11-16T05:53:06.709Z,9.757569
2022-11-16T05:54:06.667Z,9.757492
2022-11-16T05:55:06.665Z,9.757509
2022-11-16T05:56:06.729Z,9.757521
2022-11-16T05:57:06.637Z,9.757487
2022-11-16T05:58:06.661Z,9.757418
2022-11-16T05:59:06.619Z,9.757530
2022-11-16T06:00:06.628Z,9.757528
2022-11-16T06:01:06.620Z,9.757488
2022-11-16T06:02:06.598Z,9.757561
2022-11-16T06:03:06.663Z,9.757609
2022-11-16T06:04:06.577Z,9.757548
2022-11-16T06:05:06.577Z,9.757481
2022-11-16T06:06:06.564Z,9.757731
2022-11-16T06:07:06.609Z,9.757682
2022-11-16T06:08:06.578Z,9.757532
2022-11-16T06:09:06.540Z,9.757533
2022-11-16T06:10:06.542Z,9.757383
2022-11-16T06:11:06.513Z,9.757545
2022-11-16T06:12:07.522Z,9.757397
2022-11-16T06:13:06.539Z,9.757476
2022-11-16T06:14:06.510Z,9.757465
2022-11-16T06:15:06.489Z,9.757791
2022-11-16T06:16:06.821Z,9.757677
2022-11-16T06:17:06.488Z,9.757595
2022-11-16T06:18:06.496Z,9.757643
2022-11-16T06:19:06.474Z,9.757382
2022-11-16T06:20:06.450Z,9.757598
2022-11-16T06:21:06.434Z,9.757506
2022-11-16T06:22:06.442Z,9.757586
2022-11-16T06:23:06.456Z,9.757552
2022-11-16T06:24:06.422Z,9.757633
2022-11-16T06:25:06.411Z,9.757611
2022-11-16T06:26:06.425Z,9.757352
2022-11-16T06:27:06.417Z,9.757405
2022-11-16T06:28:08.089Z,9.757753
2022-11-16T06:29:07.368Z,9.757556
2022-11-16T06:30:06.373Z,9.757369
2022-11-16T06:31:06.367Z,9.757381
2022-11-16T06:32:06.421Z,9.757741
2022-11-16T06:33:06.375Z,9.757578
2022-11-16T06:34:06.333Z,9.757563
2022-11-16T06:35:06.356Z,9.757686
2022-11-16T06:36:06.328Z,9.757585
2022-11-16T06:37:06.378Z,9.757515
2022-11-16T06:38:06.336Z,9.757564
2022-11-16T06:39:06.292Z,9.757561
2022-11-16T06:40:06.284Z,9.757560
2022-11-16T06:41:06.280Z,9.757558
2022-11-16T06:42:06.293Z,9.757524
2022-11-16T06:43:06.289Z,9.757423
2022-11-16T06:44:06.258Z,9.757401
2022-11-16T06:45:06.255Z,9.757442
2022-11-16T06:46:06.233Z,9.757567
2022-11-16T06:47:06.232Z,9.757477
2022-11-16T06:48:06.523Z,9.757461
2022-11-16T06:49:06.242Z,9.756912
2022-11-16T06:50:06.210Z,9.757166
2022-11-16T06:51:06.194Z,9.757302
2022-11-16T06:52:06.194Z,9.757401
2022-11-16T06:53:06.207Z,9.757500
2022-11-16T06:54:06.209Z,9.757525
2022-11-16T06:55:06.166Z,9.757425
2022-11-16T06:56:06.165Z,9.757463
2022-11-16T06:57:06.151Z,9.757353
2022-11-16T06:58:06.140Z,9.757549
2022-11-16T06:59:06.155Z,9.757572
2022-11-16T07:00:06.126Z,9.757502
2022-11-16T07:01:06.125Z,9.757555
2022-11-16T07:02:06.125Z,9.757457
2022-11-16T07:03:06.107Z,9.757437
2022-11-16T07:04:06.124Z,9.757505
2022-11-16T07:05:06.084Z,9.757580
2022-11-16T07:06:06.103Z,9.757684
2022-11-16T07:07:06.089Z,9.757453
2022-11-16T07:08:06.058Z,9.757426
2022-11-16T07:09:06.089Z,9.757459
2022-11-16T07:10:06.040Z,9.757467
2022-11-16T07:11:06.033Z,9.757505
2022-11-16T07:12:06.025Z,9.757496
2022-11-16T07:13:06.020Z,9.757318
2022-11-16T07:14:06.093Z,9.757439
2022-11-16T07:15:06.002Z,9.757437
2022-11-16T07:16:05.987Z,9.757565
2022-11-16T07:17:09.462Z,9.757602
2022-11-16T07:18:06.978Z,9.757524
2022-11-16T07:19:05.991Z,9.757481
2022-11-16T07:20:05.962Z,9.757384
2022-11-16T07:21:05.952Z,9.757481
2022-11-16T07:22:05.983Z,9.757531
2022-11-16T07:23:09.057Z,9.757466
2022-11-16T07:24:06.955Z,9.757580
2022-11-16T07:25:05.931Z,9.757500
2022-11-16T07:26:05.912Z,9.757415
2022-11-16T07:27:05.892Z,9.757545
2022-11-16T07:28:05.901Z,9.757515
2022-11-16T07:29:05.912Z,9.757558
2022-11-16T07:30:05.880Z,9.757486
2022-11-16T07:31:05.868Z,9.757499
2022-11-16T07:32:05.868Z,9.757494
2022-11-16T07:33:05.848Z,9.757539
2022-11-16T07:34:05.869Z,9.757560
2022-11-16T07:35:05.831Z,9.757400
2022-11-16T07:36:06.093Z,9.757383
2022-11-16T07:37:05.811Z,9.757446
2022-11-16T07:38:05.799Z,9.757548
2022-11-16T07:39:05.826Z,9.757482
2022-11-16T07:40:05.787Z,9.757349
2022-11-16T07:41:05.777Z,9.757378
2022-11-16T07:42:05.766Z,9.757393
2022-11-16T07:43:05.757Z,9.757296
2022-11-16T07:44:10.878Z,9.757413
2022-11-16T07:45:07.748Z,9.757354
2022-11-16T07:46:44.807Z,9.757489
2022-11-16T07:47:07.729Z,9.757638
2022-11-16T07:48:05.717Z,9.757532
2022-11-16T07:49:10.958Z,9.757441
2022-11-16T07:50:07.696Z,9.757932
2022-11-16T07:51:05.690Z,9.758306
2022-11-16T07:52:05.935Z,9.757716
2022-11-16T07:53:05.676Z,9.757574
2022-11-16T07:54:05.697Z,9.757632
2022-11-16T07:55:05.663Z,9.757535
2022-11-16T07:56:05.647Z,9.757466
2022-11-16T07:57:05.647Z,9.757752
2022-11-16T07:58:05.633Z,9.757578
2022-11-16T07:59:05.627Z,9.757486
2022-11-16T08:00:05.643Z,9.757526
2022-11-16T08:01:05.609Z,9.757531
2022-11-16T08:02:05.651Z,9.757635
2022-11-16T08:03:05.595Z,9.757595
2022-11-16T08:04:05.637Z,9.757447
2022-11-16T08:05:05.576Z,9.757357
2022-11-16T08:06:05.575Z,9.757418
2022-11-16T08:07:05.613Z,9.757396
2022-11-16T08:08:05.621Z,9.757449
2022-11-16T08:09:05.557Z,9.757464
2022-11-16T08:10:05.646Z,9.757512
2022-11-16T08:11:05.527Z,9.757427
2022-11-16T08:12:05.525Z,9.757336
2022-11-16T08:13:05.519Z,9.757376
2022-11-16T08:14:05.508Z,9.757504
2022-11-16T08:15:05.530Z,9.757505
2022-11-16T08:16:05.494Z,9.757538
2022-11-16T08:17:05.491Z,9.757458
2022-11-16T08:18:05.485Z,9.757471
2022-11-16T08:19:05.522Z,9.757274
2022-11-16T08:20:05.495Z,9.757500
2022-11-16T08:21:05.447Z,9.757539
2022-11-16T08:22:05.437Z,9.757499
2022-11-16T08:23:05.436Z,9.757421
2022-11-16T08:24:05.426Z,9.757386
2022-11-16T08:25:05.451Z,9.757378
2022-11-16T08:26:05.420Z,9.757477
2022-11-16T08:27:05.400Z,9.757697
2022-11-16T08:28:05.409Z,9.757569
2022-11-16T08:29:05.396Z,9.757450
2022-11-16T08:30:05.403Z,9.757455
2022-11-16T08:31:05.370Z,9.757615
2022-11-16T08:32:05.363Z,9.757680
2022-11-16T08:33:05.352Z,9.757492
2022-11-16T08:34:05.371Z,9.757319
2022-11-16T08:35:05.383Z,9.756918
2022-11-16T08:36:09.449Z,9.757080
2022-11-16T08:37:07.331Z,9.757425
2022-11-16T08:38:05.316Z,9.757314
2022-11-16T08:39:05.310Z,9.757255
2022-11-16T08:40:05.346Z,9.757348
2022-11-16T08:41:05.282Z,9.757324
2022-11-16T08:42:05.288Z,9.757319
2022-11-16T08:43:05.273Z,9.757431
2022-11-16T08:44:05.260Z,9.757435
2022-11-16T08:45:05.288Z,9.757535
2022-11-16T08:46:05.262Z,9.757629
2022-11-16T08:47:05.237Z,9.757869
2022-11-16T08:48:05.235Z,9.757558
2022-11-16T08:49:05.220Z,9.757549
2022-11-16T08:50:05.238Z,9.757564
2022-11-16T08:51:21.095Z,9.757521
2022-11-16T08:52:07.198Z,9.757491
2022-11-16T08:53:05.187Z,9.757466
2022-11-16T08:54:05.177Z,9.757531
2022-11-16T08:55:05.186Z,9.757408
2022-11-16T08:56:06.169Z,9.757506
2022-11-16T08:57:05.166Z,9.757550
2022-11-16T08:58:05.139Z,9.757523
2022-11-16T08:59:05.152Z,9.757446
2022-11-16T09:00:06.176Z,9.757504
2022-11-16T09:01:05.113Z,9.757553
2022-11-16T09:02:05.194Z,9.757563
2022-11-16T09:03:05.137Z,9.757558
2022-11-16T09:04:05.094Z,9.757442
2022-11-16T09:05:05.124Z,9.757473
2022-11-16T09:06:05.078Z,9.757461
2022-11-16T09:07:05.127Z,9.757485
2022-11-16T09:08:05.066Z,9.757547
2022-11-16T09:09:05.057Z,9.757615
2022-11-16T09:10:05.116Z,9.757518
2022-11-16T09:11:05.072Z,9.757469
2022-11-16T09:12:05.027Z,9.757615
2022-11-16T09:13:05.031Z,9.757464
2022-11-16T09:14:05.009Z,9.757476
2022-11-16T09:15:05.012Z,9.757862
2022-11-16T09:16:05.071Z,9.757808
2022-11-16T09:17:04.993Z,9.757744
2022-11-16T09:18:04.981Z,9.757728
2022-11-16T09:19:05.019Z,9.757504
2022-11-16T09:20:04.964Z,9.757495
2022-11-16T09:21:04.999Z,9.757455
2022-11-16T09:22:04.945Z,9.757498
2022-11-16T09:23:04.930Z,9.757625
2022-11-16T09:24:04.924Z,9.757480
2022-11-16T09:25:04.999Z,9.757125
2022-11-16T09:26:04.967Z,9.757502
2022-11-16T09:27:04.899Z,9.757560
2022-11-16T09:28:04.893Z,9.757471
2022-11-16T09:29:04.892Z,9.757307
2022-11-16T09:30:04.877Z,9.757655
2022-11-16T09:31:04.908Z,9.757260
2022-11-16T09:32:04.864Z,9.757463
2022-11-16T09:33:04.869Z,9.757554
2022-11-16T09:34:04.904Z,9.757550
2022-11-16T09:35:04.839Z,9.757565
2022-11-16T09:36:05.117Z,9.757621
2022-11-16T09:37:04.866Z,9.757533
2022-11-16T09:38:04.808Z,9.757365
2022-11-16T09:39:32.607Z,9.757469
2022-11-16T09:40:06.944Z,9.757518
2022-11-16T09:41:04.815Z,9.757501
2022-11-16T09:42:04.787Z,9.757547
2022-11-16T09:43:04.800Z,9.757595
2022-11-16T09:44:04.843Z,9.757512
2022-11-16T09:45:04.928Z,9.757494
2022-11-16T09:46:04.768Z,9.757481
2022-11-16T09:47:04.824Z,9.757485
2022-11-16T09:48:04.726Z,9.757483
2022-11-16T09:49:04.948Z,9.757409
2022-11-16T09:50:04.730Z,9.757483
2022-11-16T09:51:04.705Z,9.757502
2022-11-16T09:52:04.728Z,9.757505
2022-11-16T09:53:04.719Z,9.757419
2022-11-16T09:54:04.736Z,9.757491
2022-11-16T09:55:04.667Z,9.757500
2022-11-16T09:56:04.665Z,9.757513
2022-11-16T09:57:12.010Z,9.757484
2022-11-16T09:58:06.638Z,9.757390
2022-11-16T09:59:04.634Z,9.757465
2022-11-16T10:00:04.695Z,9.757467
2022-11-16T10:01:04.764Z,9.757456
2022-11-16T10:02:04.639Z,9.757515
2022-11-16T10:03:04.600Z,9.757493
2022-11-16T10:04:04.637Z,9.757483
2022-11-16T10:05:04.586Z,9.757472
2022-11-16T10:06:04.575Z,9.757513
2022-11-16T10:07:04.711Z,9.757447
2022-11-16T10:08:04.612Z,9.757465
2022-11-16T10:09:04.551Z,9.757452
2022-11-16T10:10:04.546Z,9.757459
2022-11-16T10:11:04.535Z,9.757441
2022-11-16T10:12:04.557Z,9.757318
2022-11-16T10:13:04.513Z,9.757214
2022-11-16T10:14:04.664Z,9.757129
2022-11-16T10:15:04.502Z,9.757243
2022-11-16T10:16:04.493Z,9.757322
2022-11-16T10:17:04.515Z,9.757424
2022-11-16T10:18:04.477Z,9.757277
2022-11-16T10:19:04.467Z,9.757414
2022-11-16T10:20:04.569Z,9.757350
2022-11-16T10:21:04.446Z,9.757337
2022-11-16T10:22:04.469Z,9.757106
2022-11-16T10:23:04.453Z,9.757325
2022-11-16T10:24:04.428Z,9.757440
2022-11-16T10:25:04.440Z,9.757358
2022-11-16T10:26:04.415Z,9.757336
2022-11-16T10:27:04.428Z,9.757375
2022-11-16T10:28:04.399Z,9.757570
2022-11-16T10:29:04.398Z,9.757472
2022-11-16T10:30:04.400Z,9.757442
2022-11-16T10:31:04.373Z,9.757400
2022-11-16T10:32:04.466Z,9.757423
2022-11-16T10:33:09.659Z,9.757377
2022-11-16T10:34:06.463Z,9.757393
2022-11-16T10:35:04.337Z,9.757410
2022-11-16T10:36:04.361Z,9.757425
2022-11-16T10:37:04.444Z,9.757556
2022-11-16T10:38:04.304Z,9.757470
2022-11-16T10:39:04.295Z,9.757309
2022-11-16T10:40:04.299Z,9.757306
2022-11-16T10:41:04.282Z,9.757480
2022-11-16T10:42:07.454Z,9.757378
2022-11-16T10:43:05.269Z,9.757336
2022-11-16T10:44:04.263Z,9.757155
2022-11-16T10:45:04.250Z,9.757273
2022-11-16T10:46:04.239Z,9.757271
2022-11-16T10:47:04.323Z,9.757326
2022-11-16T10:48:04.303Z,9.757436
2022-11-16T10:49:04.224Z,9.757451
2022-11-16T10:50:04.216Z,9.757426
2022-11-16T10:51:04.198Z,9.757355
2022-11-16T10:52:04.224Z,9.757354
2022-11-16T10:53:04.192Z,9.757346
2022-11-16T10:54:04.175Z,9.757327
2022-11-16T10:55:04.171Z,9.757297
2022-11-16T10:56:04.164Z,9.757359
2022-11-16T10:57:04.191Z,9.757431
2022-11-16T10:58:04.148Z,9.757382
2022-11-16T10:59:04.140Z,9.757383
2022-11-16T11:00:05.102Z,9.757479
2022-11-16T11:01:04.145Z,9.757476
2022-11-16T11:02:04.142Z,9.757445
2022-11-16T11:03:04.112Z,9.757421
2022-11-16T11:04:04.166Z,9.757479
2022-11-16T11:05:04.098Z,9.757450
2022-11-16T11:06:04.083Z,9.757458
2022-11-16T11:07:04.095Z,9.757420
2022-11-16T11:08:04.090Z,9.757403
2022-11-16T11:09:04.049Z,9.757426
2022-11-16T11:10:04.051Z,9.757482
2022-11-16T11:11:04.040Z,9.757533
2022-11-16T11:12:04.031Z,9.757471
2022-11-16T11:13:04.050Z,9.757356
2022-11-16T11:14:04.020Z,9.757399
2022-11-16T11:15:04.016Z,9.757393
2022-11-16T11:16:04.000Z,9.757298
2022-11-16T11:17:03.993Z,9.757391
2022-11-16T11:18:04.009Z,9.757391
2022-11-16T11:19:03.972Z,9.757388
2022-11-16T11:20:04.034Z,9.757401
2022-11-16T11:21:03.955Z,9.757441
2022-11-16T11:22:03.949Z,9.757442
2022-11-16T11:23:03.965Z,9.757432
2022-11-16T11:24:37.311Z,9.757455
2022-11-16T11:25:05.925Z,9.757467
2022-11-16T11:26:03.933Z,9.757466
2022-11-16T11:27:03.928Z,9.757399
2022-11-16T11:28:03.933Z,9.757495
2022-11-16T11:29:03.899Z,9.757514
2022-11-16T11:30:03.945Z,9.757451
2022-11-16T11:31:03.878Z,9.757443
2022-11-16T11:32:03.876Z,9.757502
2022-11-16T11:33:03.959Z,9.757476
2022-11-16T11:34:03.855Z,9.757405
2022-11-16T11:35:03.849Z,9.757404
2022-11-16T11:36:03.899Z,9.757409
2022-11-16T11:37:03.836Z,9.757462
2022-11-16T11:38:08.087Z,9.757427
2022-11-16T11:39:04.849Z,9.757476
2022-11-16T11:40:03.809Z,9.757504
2022-11-16T11:41:03.795Z,9.757453
2022-11-16T11:42:03.784Z,9.757408
2022-11-16T11:43:03.819Z,9.757463
2022-11-16T11:44:03.776Z,9.757399